createdAt,value
2023-04-15T00:01:45.148Z,96.90
2023-04-15T00:04:12.406Z,96.80
2023-04-15T00:06:39.819Z,96.80
2023-04-15T00:09:06.746Z,96.60
2023-04-15T00:11:34.733Z,96.80
2023-04-15T00:14:01.480Z,96.80
2023-04-15T00:16:28.351Z,96.90
2023-04-15T00:18:55.094Z,97.20
2023-04-15T00:21:21.781Z,97.10
2023-04-15T00:23:52.520Z,97.60
2023-04-15T00:26:19.630Z,97.80
2023-04-15T00:28:47.706Z,97.80
2023-04-15T00:31:15.298Z,97.50
2023-04-15T00:33:42.113Z,97.50
2023-04-15T00:36:08.794Z,97.20
2023-04-15T00:38:36.561Z,97.30
2023-04-15T00:41:03.728Z,97.70
2023-04-15T00:43:30.408Z,98.00
2023-04-15T00:45:59.361Z,98.30
2023-04-15T00:48:27.898Z,98.10
2023-04-15T00:50:54.531Z,98.30
2023-04-15T00:53:21.218Z,97.80
2023-04-15T00:55:47.924Z,97.30
2023-04-15T00:58:15.230Z,96.60
2023-04-15T01:00:42.994Z,96.80
2023-04-15T01:03:10.334Z,96.70
2023-04-15T01:05:38.430Z,97.00
2023-04-15T01:08:05.813Z,97.10
2023-04-15T01:10:33.232Z,97.40
2023-04-15T01:13:00.069Z,96.60
2023-04-15T01:15:27.493Z,96.40
2023-04-15T01:17:54.624Z,96.70
2023-04-15T01:20:22.108Z,97.20
2023-04-15T01:22:49.442Z,97.10
2023-04-15T01:25:20.085Z,97.30
2023-04-15T01:27:47.548Z,97.50
2023-04-15T01:30:14.206Z,97.30
2023-04-15T01:32:41.643Z,97.20
2023-04-15T01:35:08.898Z,97.40
2023-04-15T01:37:36.724Z,97.40
2023-04-15T01:40:03.579Z,97.50
2023-04-15T01:42:30.364Z,97.40
2023-04-15T01:44:57.072Z,97.10
2023-04-15T01:47:23.794Z,97.00
2023-04-15T01:49:50.439Z,96.80
2023-04-15T01:52:17.061Z,96.20
2023-04-15T01:54:43.876Z,96.40
2023-04-15T01:57:12.133Z,96.30
2023-04-15T01:59:38.958Z,96.50
2023-04-15T02:02:05.667Z,96.40
2023-04-15T02:04:32.575Z,96.50
2023-04-15T02:07:00.675Z,96.10
2023-04-15T02:09:27.387Z,96.40
2023-04-15T02:11:54.285Z,96.20
2023-04-15T02:14:21.082Z,96.30
2023-04-15T02:16:47.835Z,96.20
2023-04-15T02:19:16.073Z,96.40
2023-04-15T02:21:42.803Z,96.30
2023-04-15T02:24:09.513Z,96.50
2023-04-15T02:26:36.185Z,96.40
2023-04-15T02:29:03.233Z,96.20
2023-04-15T02:31:30.710Z,96.10
2023-04-15T02:33:58.885Z,96.40
2023-04-15T02:36:27.004Z,97.10
2023-04-15T02:38:53.635Z,97.20
2023-04-15T02:41:21.445Z,97.20
2023-04-15T02:43:48.085Z,97.00
2023-04-15T02:46:15.050Z,96.70
2023-04-15T02:48:42.029Z,96.80
2023-04-15T02:51:18.310Z,97.00
2023-04-15T02:53:45.261Z,97.20
2023-04-15T02:56:12.532Z,97.30
2023-04-15T02:58:40.589Z,97.40
2023-04-15T03:01:08.849Z,97.40
2023-04-15T03:03:36.067Z,97.30
2023-04-15T03:06:02.807Z,97.40
2023-04-15T03:08:29.763Z,97.30
2023-04-15T03:11:00.675Z,97.20
2023-04-15T03:13:27.662Z,97.30
2023-04-15T03:15:56.285Z,97.70
2023-04-15T03:18:23.631Z,97.70
2023-04-15T03:20:50.581Z,97.70
2023-04-15T03:23:17.733Z,97.90
2023-04-15T03:25:45.384Z,98.20
2023-04-15T03:28:12.336Z,98.30
2023-04-15T03:30:39.043Z,98.10
2023-04-15T03:33:06.081Z,97.30
2023-04-15T03:35:32.854Z,96.40
2023-04-15T03:37:59.523Z,96.40
2023-04-15T03:40:26.184Z,96.40
2023-04-15T03:42:52.816Z,96.10
2023-04-15T03:45:19.683Z,96.60
2023-04-15T03:47:46.579Z,97.20
2023-04-15T03:50:13.300Z,97.70
2023-04-15T03:52:40.110Z,97.60
2023-04-15T03:55:06.981Z,97.70
2023-04-15T03:57:37.899Z,97.90
2023-04-15T04:00:11.700Z,98.20
2023-04-15T04:02:41.445Z,98.20
2023-04-15T04:05:08.836Z,98.00
2023-04-15T04:07:35.500Z,97.80
2023-04-15T04:10:03.728Z,97.40
2023-04-15T04:12:30.541Z,96.80
2023-04-15T04:14:57.171Z,96.90
2023-04-15T04:17:23.883Z,97.00
2023-04-15T04:19:50.658Z,97.20
2023-04-15T04:22:17.365Z,97.20
2023-04-15T04:24:44.088Z,97.20
2023-04-15T04:27:10.822Z,97.40
2023-04-15T04:29:37.455Z,97.70
2023-04-15T04:32:04.427Z,97.80
2023-04-15T04:34:31.117Z,97.40
2023-04-15T04:36:57.936Z,97.30
2023-04-15T04:39:24.636Z,97.50
2023-04-15T04:41:52.381Z,97.70
2023-04-15T04:44:19.033Z,97.40
2023-04-15T04:46:45.661Z,97.20
2023-04-15T04:49:12.389Z,97.00
2023-04-15T04:51:39.100Z,96.70
2023-04-15T04:54:05.760Z,97.00
2023-04-15T04:56:34.198Z,97.10
2023-04-15T04:59:01.315Z,96.90
2023-04-15T05:01:28.574Z,97.20
2023-04-15T05:03:55.379Z,97.10
2023-04-15T05:06:22.127Z,97.20
2023-04-15T05:08:48.875Z,97.30
2023-04-15T05:11:15.568Z,97.20
2023-04-15T05:13:42.203Z,96.90
2023-04-15T05:16:09.401Z,97.10
2023-04-15T05:18:36.607Z,97.10
2023-04-15T05:21:03.366Z,97.50
2023-04-15T05:23:30.194Z,97.80
2023-04-15T05:25:56.867Z,97.70
2023-04-15T05:28:23.539Z,97.70
2023-04-15T05:30:50.531Z,98.20
2023-04-15T05:33:17.495Z,98.30
2023-04-15T05:35:44.143Z,98.30
2023-04-15T05:38:10.821Z,98.30
2023-04-15T05:40:37.623Z,98.30
2023-04-15T05:43:04.303Z,98.30
2023-04-15T05:45:31.023Z,98.30
2023-04-15T05:47:58.147Z,98.30
2023-04-15T05:50:25.503Z,98.30
2023-04-15T05:52:52.707Z,98.30
2023-04-15T05:55:19.515Z,98.30
2023-04-15T05:57:46.393Z,98.10
2023-04-15T06:00:13.648Z,98.20
2023-04-15T06:02:40.448Z,98.20
2023-04-15T06:05:09.906Z,98.10
2023-04-15T06:07:37.553Z,98.30
2023-04-15T06:10:05.816Z,98.20
2023-04-15T06:12:32.639Z,97.80
2023-04-15T06:15:00.292Z,97.60
2023-04-15T06:17:27.284Z,97.50
2023-04-15T06:19:55.715Z,96.90
2023-04-15T06:22:24.249Z,96.60
2023-04-15T06:24:51.516Z,97.00
2023-04-15T06:27:18.619Z,97.40
2023-04-15T06:29:45.449Z,97.50
2023-04-15T06:32:12.977Z,97.90
2023-04-15T06:34:39.883Z,97.70
2023-04-15T06:37:06.622Z,97.70
2023-04-15T06:39:33.606Z,98.00
2023-04-15T06:42:01.365Z,97.90
2023-04-15T06:44:28.069Z,98.00
2023-04-15T06:46:54.761Z,97.70
2023-04-15T06:49:21.749Z,97.30
2023-04-15T06:51:48.501Z,97.30
2023-04-15T06:54:15.191Z,97.20
2023-04-15T06:56:41.946Z,96.90
2023-04-15T06:59:08.739Z,97.10
2023-04-15T07:01:35.810Z,97.00
2023-04-15T07:04:02.668Z,97.30
2023-04-15T07:06:29.349Z,97.60
2023-04-15T07:08:56.334Z,97.80
2023-04-15T07:11:23.001Z,97.90
2023-04-15T07:13:49.625Z,97.80
2023-04-15T07:16:16.280Z,98.20
2023-04-15T07:18:43.407Z,98.10
2023-04-15T07:21:10.090Z,97.80
2023-04-15T07:23:36.732Z,97.70
2023-04-15T07:26:03.881Z,97.90
2023-04-15T07:28:30.675Z,97.30
2023-04-15T07:30:57.673Z,97.10
2023-04-15T07:33:24.355Z,96.60
2023-04-15T07:35:51.064Z,96.70
2023-04-15T07:38:17.884Z,96.00
2023-04-15T07:40:44.589Z,95.40
2023-04-15T07:43:11.328Z,95.30
2023-04-15T07:45:37.963Z,95.00
2023-04-15T07:48:05.824Z,95.10
2023-04-15T07:50:32.584Z,94.90
2023-04-15T07:52:59.287Z,94.50
2023-04-15T07:55:27.256Z,94.30
2023-04-15T07:57:55.174Z,94.00
2023-04-15T08:00:22.173Z,93.70
2023-04-15T08:02:49.815Z,93.60
2023-04-15T08:05:16.816Z,93.20
2023-04-15T08:07:43.881Z,93.20
2023-04-15T08:10:11.932Z,92.90
2023-04-15T08:12:38.690Z,92.70
2023-04-15T08:15:06.571Z,92.90
2023-04-15T08:17:33.495Z,93.30
2023-04-15T08:20:00.209Z,92.90
2023-04-15T08:22:27.519Z,92.80
2023-04-15T08:24:54.177Z,92.70
2023-04-15T08:27:21.482Z,92.50
2023-04-15T08:29:48.127Z,92.40
2023-04-15T08:32:14.914Z,91.90
2023-04-15T08:34:41.855Z,92.30
2023-04-15T08:37:08.884Z,91.90
2023-04-15T08:39:36.258Z,91.60
2023-04-15T08:42:07.071Z,90.80
2023-04-15T08:44:36.806Z,90.40
2023-04-15T08:47:07.737Z,90.40
2023-04-15T08:49:38.990Z,90.50
2023-04-15T08:52:07.370Z,90.80
2023-04-15T08:54:34.731Z,90.60
2023-04-15T08:57:02.477Z,90.20
2023-04-15T08:59:30.997Z,89.80
2023-04-15T09:01:58.739Z,89.90
2023-04-15T09:04:25.439Z,89.70
2023-04-15T09:06:52.323Z,89.70
2023-04-15T09:09:18.974Z,89.60
2023-04-15T09:11:45.745Z,89.80
2023-04-15T09:14:13.438Z,89.70
2023-04-15T09:16:59.734Z,89.00
2023-04-15T09:19:27.150Z,89.00
2023-04-15T09:21:58.672Z,89.60
2023-04-15T09:24:34.156Z,89.30
2023-04-15T09:27:01.122Z,89.60
2023-04-15T09:29:28.346Z,88.80
2023-04-15T09:31:55.072Z,88.30
2023-04-15T09:34:34.850Z,88.90
2023-04-15T09:37:01.490Z,87.60
2023-04-15T09:39:28.533Z,88.70
2023-04-15T09:42:06.734Z,87.30
2023-04-15T09:44:33.564Z,84.00
2023-04-15T09:47:00.670Z,83.10
2023-04-15T09:49:27.404Z,81.60
2023-04-15T09:52:05.791Z,82.00
2023-04-15T09:54:37.832Z,81.90
2023-04-15T09:57:09.834Z,81.40
2023-04-15T09:59:36.561Z,81.20
2023-04-15T10:02:07.410Z,81.30
2023-04-15T10:04:40.896Z,81.30
2023-04-15T10:07:12.804Z,81.40
2023-04-15T10:09:39.743Z,81.70
2023-04-15T10:12:06.543Z,81.80
2023-04-15T10:14:36.423Z,81.60
2023-04-15T10:17:05.048Z,82.30
2023-04-15T10:19:33.623Z,81.50
2023-04-15T10:22:00.473Z,81.00
2023-04-15T10:24:27.832Z,81.10
2023-04-15T10:26:55.457Z,80.40
2023-04-15T10:29:23.304Z,81.60
2023-04-15T10:31:50.950Z,82.10
2023-04-15T10:34:18.419Z,82.00
2023-04-15T10:36:46.988Z,81.40
2023-04-15T10:39:42.957Z,81.00
2023-04-15T10:42:17.736Z,81.30
2023-04-15T10:44:56.865Z,81.60
2023-04-15T10:47:23.962Z,82.20
2023-04-15T10:49:56.697Z,81.80
2023-04-15T10:52:26.108Z,81.60
2023-04-15T10:55:22.859Z,80.60
2023-04-15T10:57:54.184Z,81.00
2023-04-15T11:00:25.903Z,81.10
2023-04-15T11:03:14.882Z,81.10
2023-04-15T11:05:41.631Z,81.00
2023-04-15T11:08:12.493Z,79.90
2023-04-15T11:10:39.094Z,78.60
2023-04-15T11:13:11.618Z,77.20
2023-04-15T11:15:40.237Z,77.00
2023-04-15T11:18:11.197Z,75.60
2023-04-15T11:20:42.599Z,75.60
2023-04-15T11:23:14.607Z,76.30
2023-04-15T11:25:43.020Z,75.00
2023-04-15T11:28:11.343Z,75.00
2023-04-15T11:30:38.652Z,75.20
2023-04-15T11:33:08.393Z,74.50
2023-04-15T11:35:35.946Z,75.80
2023-04-15T11:38:09.046Z,74.70
2023-04-15T11:40:36.191Z,73.80
2023-04-15T11:43:08.427Z,73.50
2023-04-15T11:45:36.196Z,72.60
2023-04-15T11:48:11.015Z,73.60
2023-04-15T11:50:40.730Z,72.60
2023-04-15T11:53:12.025Z,72.30
2023-04-15T11:55:52.044Z,71.20
2023-04-15T11:58:24.370Z,72.10
2023-04-15T12:00:54.124Z,71.90
2023-04-15T12:03:25.214Z,70.90
2023-04-15T12:06:06.030Z,70.40
2023-04-15T12:08:50.058Z,71.60
2023-04-15T12:11:17.447Z,70.80
2023-04-15T12:14:23.426Z,71.20
2023-04-15T12:16:54.136Z,72.70
2023-04-15T12:19:27.450Z,73.30
2023-04-15T12:22:00.642Z,74.00
2023-04-15T12:24:28.234Z,74.70
2023-04-15T12:26:57.591Z,75.50
2023-04-15T12:29:29.329Z,75.20
2023-04-15T12:31:57.230Z,75.80
2023-04-15T12:34:35.832Z,75.90
2023-04-15T12:37:04.931Z,75.60
2023-04-15T12:39:35.431Z,76.50
2023-04-15T12:42:02.903Z,76.60
2023-04-15T12:44:29.748Z,77.80
2023-04-15T12:46:56.822Z,78.10
2023-04-15T12:49:24.295Z,78.80
2023-04-15T12:51:54.680Z,78.40
2023-04-15T12:54:22.176Z,79.90
2023-04-15T12:56:50.484Z,79.60
2023-04-15T12:59:18.536Z,78.30
2023-04-15T13:01:46.567Z,78.50
2023-04-15T13:04:13.824Z,78.80
2023-04-15T13:06:40.536Z,78.20
2023-04-15T13:09:07.283Z,78.10
2023-04-15T13:11:34.399Z,77.70
2023-04-15T13:14:03.104Z,79.40
2023-04-15T13:16:30.661Z,79.60
2023-04-15T13:18:57.855Z,79.80
2023-04-15T13:21:25.272Z,80.70
2023-04-15T13:23:52.282Z,80.40
2023-04-15T13:26:19.108Z,80.80
2023-04-15T13:28:46.213Z,80.80
2023-04-15T13:31:12.950Z,81.70
2023-04-15T13:33:39.756Z,83.00
2023-04-15T13:36:06.794Z,84.00
2023-04-15T13:38:33.431Z,85.20
2023-04-15T13:41:00.113Z,86.70
2023-04-15T13:43:26.963Z,87.00
2023-04-15T13:45:53.728Z,87.40
2023-04-15T13:48:20.656Z,88.70
2023-04-15T13:50:47.349Z,89.90
2023-04-15T13:53:14.057Z,90.30
2023-04-15T13:55:42.509Z,90.60
2023-04-15T13:58:09.735Z,91.10
2023-04-15T14:00:36.658Z,90.70
2023-04-15T14:03:03.500Z,90.30
2023-04-15T14:05:30.349Z,90.90
2023-04-15T14:07:57.144Z,90.60
2023-04-15T14:10:23.801Z,91.20
2023-04-15T14:12:50.674Z,90.90
2023-04-15T14:15:17.472Z,90.50
2023-04-15T14:17:44.297Z,91.00
2023-04-15T14:20:11.155Z,91.00
2023-04-15T14:22:37.812Z,90.80
2023-04-15T14:25:06.351Z,91.30
2023-04-15T14:27:32.991Z,91.20
2023-04-15T14:29:59.954Z,90.30
2023-04-15T14:32:27.110Z,90.40
2023-04-15T14:34:53.767Z,90.00
2023-04-15T14:37:20.477Z,90.00
2023-04-15T14:39:47.135Z,90.50
2023-04-15T14:42:13.763Z,90.40
2023-04-15T14:44:40.511Z,90.60
2023-04-15T14:47:07.364Z,90.90
2023-04-15T14:49:34.126Z,90.00
2023-04-15T14:52:00.841Z,91.30
2023-04-15T14:54:27.498Z,92.20
2023-04-15T14:56:54.134Z,92.60
2023-04-15T14:59:21.114Z,92.70
2023-04-15T15:01:48.372Z,90.90
2023-04-15T15:04:15.339Z,91.70
2023-04-15T15:06:42.439Z,92.50
2023-04-15T15:09:09.185Z,91.60
2023-04-15T15:11:35.838Z,92.60
2023-04-15T15:14:02.489Z,91.70
2023-04-15T15:16:29.395Z,91.10
2023-04-15T15:18:56.339Z,90.80
2023-04-15T15:21:23.163Z,91.50
2023-04-15T15:23:49.980Z,91.10
2023-04-15T15:26:16.839Z,91.40
2023-04-15T15:28:45.331Z,90.50
2023-04-15T15:31:12.137Z,91.40
2023-04-15T15:33:38.820Z,91.60
2023-04-15T15:36:05.971Z,90.90
2023-04-15T15:38:32.766Z,91.40
2023-04-15T15:40:59.408Z,91.40
2023-04-15T15:43:26.084Z,91.60
2023-04-15T15:45:55.368Z,92.20
2023-04-15T15:48:25.660Z,92.20
2023-04-15T15:50:52.601Z,91.40
2023-04-15T15:53:20.902Z,92.20
2023-04-15T15:55:53.204Z,92.10
2023-04-15T15:58:20.657Z,91.70
2023-04-15T16:00:47.609Z,92.30
2023-04-15T16:03:15.818Z,92.60
2023-04-15T16:05:42.657Z,93.00
2023-04-15T16:08:09.694Z,92.90
2023-04-15T16:10:38.013Z,93.00
2023-04-15T16:13:04.689Z,92.00
2023-04-15T16:15:31.408Z,92.60
2023-04-15T16:17:58.161Z,92.00
2023-04-15T16:20:24.949Z,92.50
2023-04-15T16:22:51.817Z,93.30
2023-04-15T16:25:18.618Z,92.80
2023-04-15T16:27:58.787Z,93.50
2023-04-15T16:30:28.936Z,93.50
2023-04-15T16:32:56.474Z,94.60
2023-04-15T16:35:23.151Z,95.50
2023-04-15T16:37:49.782Z,95.70
2023-04-15T16:40:16.486Z,95.90
2023-04-15T16:42:46.625Z,96.10
2023-04-15T16:45:13.390Z,95.40
2023-04-15T16:47:40.125Z,94.90
2023-04-15T16:50:07.392Z,95.10
2023-04-15T16:52:34.281Z,94.70
2023-04-15T16:55:00.970Z,95.40
2023-04-15T16:57:33.724Z,95.70
2023-04-15T17:00:14.800Z,95.90
2023-04-15T17:02:41.648Z,95.90
2023-04-15T17:05:08.775Z,95.70
2023-04-15T17:07:35.552Z,96.00
2023-04-15T17:10:02.297Z,96.40
2023-04-15T17:12:29.823Z,96.50
2023-04-15T17:14:56.738Z,96.30
2023-04-15T17:17:23.526Z,96.40
2023-04-15T17:19:50.843Z,96.90
2023-04-15T17:22:17.568Z,97.00
2023-04-15T17:24:44.499Z,97.00
2023-04-15T17:27:11.361Z,96.90
2023-04-15T17:29:37.969Z,97.20
2023-04-15T17:32:04.965Z,97.60
2023-04-15T17:34:49.715Z,96.80
2023-04-15T17:37:18.023Z,96.90
2023-04-15T17:39:44.848Z,97.50
2023-04-15T17:42:12.252Z,97.60
2023-04-15T17:44:39.506Z,97.60
2023-04-15T17:47:06.245Z,98.00
2023-04-15T17:49:34.121Z,97.80
2023-04-15T17:52:04.562Z,97.30
2023-04-15T17:54:47.013Z,97.90
2023-04-15T17:58:09.943Z,97.80
2023-04-15T18:03:31.287Z,98.00
2023-04-15T18:05:58.144Z,98.30
2023-04-15T18:08:26.212Z,98.30
2023-04-15T18:10:54.608Z,98.30
2023-04-15T18:13:23.052Z,98.30
2023-04-15T18:15:51.962Z,98.30
2023-04-15T18:18:20.492Z,98.30
2023-04-15T18:20:47.910Z,98.30
2023-04-15T18:26:13.005Z,98.30
2023-04-15T18:28:52.442Z,98.30
2023-04-15T18:31:24.770Z,98.30
2023-04-15T18:34:07.358Z,98.30
2023-04-15T18:36:38.219Z,98.30
2023-04-15T18:39:09.072Z,98.30
2023-04-15T18:41:43.136Z,98.30
2023-04-15T18:44:10.800Z,98.30
2023-04-15T18:46:37.470Z,98.30
2023-04-15T18:49:04.347Z,98.30
2023-04-15T18:51:35.877Z,98.30
2023-04-15T18:54:24.206Z,98.30
2023-04-15T18:56:51.868Z,98.30
2023-04-15T18:59:28.765Z,98.30
2023-04-15T19:01:58.048Z,98.30
2023-04-15T19:04:24.950Z,98.30
2023-04-15T19:06:51.848Z,98.30
2023-04-15T19:09:18.712Z,98.30
2023-04-15T19:11:45.561Z,98.30
2023-04-15T19:14:12.197Z,98.30
2023-04-15T19:16:39.323Z,98.30
2023-04-15T19:19:06.609Z,98.30
2023-04-15T19:21:33.739Z,98.30
2023-04-15T19:24:01.083Z,98.30
2023-04-15T19:26:28.062Z,98.30
2023-04-15T19:28:56.412Z,98.30
2023-04-15T19:31:23.278Z,98.30
2023-04-15T19:33:49.990Z,98.30
2023-04-15T19:36:18.114Z,98.30
2023-04-15T19:38:44.758Z,98.30
2023-04-15T19:41:11.478Z,98.30
2023-04-15T19:43:38.173Z,98.30
2023-04-15T19:46:04.886Z,98.30
2023-04-15T19:48:31.648Z,98.30
2023-04-15T19:50:58.526Z,98.30
2023-04-15T19:53:25.670Z,98.30
2023-04-15T19:55:52.319Z,98.30
2023-04-15T19:58:18.985Z,98.30
2023-04-15T20:00:45.686Z,98.30
2023-04-15T20:03:12.607Z,98.30
2023-04-15T20:05:39.376Z,98.30
2023-04-15T20:08:06.263Z,98.30
2023-04-15T20:10:33.189Z,98.30
2023-04-15T20:12:59.874Z,98.30
2023-04-15T20:15:27.211Z,98.30
2023-04-15T20:17:53.952Z,98.30
2023-04-15T20:20:21.340Z,98.30
2023-04-15T20:22:48.438Z,98.30
2023-04-15T20:25:15.133Z,98.30
2023-04-15T20:27:41.867Z,98.30
2023-04-15T20:30:09.146Z,98.30
2023-04-15T20:32:36.427Z,98.30
2023-04-15T20:35:06.947Z,98.30
2023-04-15T20:37:33.997Z,98.30
2023-04-15T20:40:01.218Z,98.30
2023-04-15T20:42:28.265Z,98.30
2023-04-15T20:44:55.555Z,98.30
2023-04-15T20:47:22.364Z,98.30
2023-04-15T20:49:49.185Z,98.30
2023-04-15T20:52:16.257Z,98.30
2023-04-15T20:54:43.039Z,98.30
2023-04-15T20:57:09.790Z,98.30
2023-04-15T20:59:36.546Z,98.30
2023-04-15T21:02:03.288Z,98.30
2023-04-15T21:04:30.045Z,98.30
2023-04-15T21:06:57.215Z,98.30
2023-04-15T21:09:24.742Z,98.30
2023-04-15T21:14:20.922Z,98.30
2023-04-15T21:16:48.184Z,98.30
2023-04-15T21:19:14.974Z,98.30
2023-04-15T21:21:41.575Z,98.30
2023-04-15T21:24:08.371Z,98.30
2023-04-15T21:26:36.046Z,98.30
2023-04-15T21:29:03.616Z,98.30
2023-04-15T21:31:30.665Z,98.30
2023-04-15T21:33:57.486Z,98.30
2023-04-15T21:36:24.176Z,98.30
2023-04-15T21:38:50.831Z,98.30
2023-04-15T21:41:17.573Z,98.30
2023-04-15T21:43:44.253Z,98.30
2023-04-15T21:46:22.295Z,98.30
2023-04-15T21:48:53.161Z,98.30
2023-04-15T21:51:20.056Z,98.30
2023-04-15T21:53:46.970Z,98.30
2023-04-15T21:56:13.665Z,98.30
2023-04-15T21:58:40.551Z,98.30
2023-04-15T22:01:07.307Z,98.30
2023-04-15T22:03:35.288Z,98.30
2023-04-15T22:06:05.402Z,98.30
2023-04-15T22:08:38.677Z,98.30
2023-04-15T22:11:26.184Z,98.30
2023-04-15T22:13:53.917Z,98.30
2023-04-15T22:16:21.108Z,98.30
2023-04-15T22:18:47.771Z,98.30
2023-04-15T22:21:14.700Z,98.30
2023-04-15T22:23:41.661Z,98.30
2023-04-15T22:26:08.629Z,98.30
2023-04-15T22:28:35.686Z,98.30
2023-04-15T22:31:02.611Z,98.30
2023-04-15T22:33:29.519Z,98.30
2023-04-15T22:35:56.587Z,98.30
2023-04-15T22:38:24.089Z,98.30
2023-04-15T22:40:53.785Z,98.30
2023-04-15T22:43:20.502Z,98.30
2023-04-15T22:45:50.962Z,98.30
2023-04-15T22:48:20.678Z,98.30
2023-04-15T22:50:47.465Z,98.30
2023-04-15T22:53:15.503Z,98.30
2023-04-15T22:55:48.765Z,98.30
2023-04-15T22:58:17.003Z,98.30
2023-04-15T23:00:43.870Z,98.30
2023-04-15T23:03:10.868Z,98.30
2023-04-15T23:05:37.729Z,98.30
2023-04-15T23:08:04.378Z,98.30
2023-04-15T23:10:31.128Z,98.30
2023-04-15T23:12:57.784Z,98.30
2023-04-15T23:15:24.680Z,98.30
2023-04-15T23:17:51.434Z,98.30
2023-04-15T23:20:18.247Z,98.30
2023-04-15T23:22:45.329Z,98.30
2023-04-15T23:25:12.082Z,98.30
2023-04-15T23:27:38.750Z,98.30
2023-04-15T23:30:06.164Z,98.30
2023-04-15T23:32:32.854Z,98.30
2023-04-15T23:34:59.550Z,98.30
2023-04-15T23:37:26.178Z,98.30
2023-04-15T23:39:52.892Z,98.30
2023-04-15T23:42:19.559Z,98.30
2023-04-15T23:44:46.279Z,98.30
2023-04-15T23:47:12.968Z,98.30
2023-04-15T23:49:40.960Z,98.30
2023-04-15T23:52:07.991Z,98.30
2023-04-15T23:54:34.924Z,98.30
2023-04-15T23:57:03.387Z,98.30
2023-04-15T23:59:30.158Z,98.30
